sensor_id;sensor_type;location;lat;lon;timestamp;temperature;humidity
54796;DHT22;40693;43.884;20.340;2022-08-24T00:01:08;563.60;2432.00
54796;DHT22;40693;43.884;20.340;2022-08-24T00:03:36;563.60;2432.00
54796;DHT22;40693;43.884;20.340;2022-08-24T00:06:03;563.60;2432.00
54796;DHT22;40693;43.884;20.340;2022-08-24T00:08:30;563.60;2432.00
54796;DHT22;40693;43.884;20.340;2022-08-24T00:10:56;563.60;2432.00
54796;DHT22;40693;43.884;20.340;2022-08-24T00:13:22;563.60;2432.00
54796;DHT22;40693;43.884;20.340;2022-08-24T00:15:48;563.60;2432.00
54796;DHT22;40693;43.884;20.340;2022-08-24T00:18:14;563.60;2432.00
54796;DHT22;40693;43.884;20.340;2022-08-24T00:24:13;563.60;2432.00
54796;DHT22;40693;43.884;20.340;2022-08-24T00:26:39;563.60;2432.00
54796;DHT22;40693;43.884;20.340;2022-08-24T00:29:05;563.60;2432.00
54796;DHT22;40693;43.884;20.340;2022-08-24T00:31:31;563.60;2432.00
54796;DHT22;40693;43.884;20.340;2022-08-24T00:33:57;563.60;2432.00
54796;DHT22;40693;43.884;20.340;2022-08-24T00:36:23;563.60;2432.00
54796;DHT22;40693;43.884;20.340;2022-08-24T00:38:49;563.50;2432.00
54796;DHT22;40693;43.884;20.340;2022-08-24T00:41:16;563.70;2432.00
54796;DHT22;40693;43.884;20.340;2022-08-24T00:43:57;563.50;2432.00
54796;DHT22;40693;43.884;20.340;2022-08-24T00:49:22;563.50;2432.00
54796;DHT22;40693;43.884;20.340;2022-08-24T00:52:02;563.50;2432.00
54796;DHT22;40693;43.884;20.340;2022-08-24T00:54:31;563.50;2432.00
54796;DHT22;40693;43.884;20.340;2022-08-24T00:57:01;563.50;2432.00
54796;DHT22;40693;43.884;20.340;2022-08-24T00:59:33;563.50;2432.00
54796;DHT22;40693;43.884;20.340;2022-08-24T01:02:22;563.60;2432.00
54796;DHT22;40693;43.884;20.340;2022-08-24T01:04:53;563.60;2432.00
54796;DHT22;40693;43.884;20.340;2022-08-24T01:07:21;563.90;2432.00
54796;DHT22;40693;43.884;20.340;2022-08-24T01:09:50;563.60;2432.00
54796;DHT22;40693;43.884;20.340;2022-08-24T01:12:16;563.60;2432.00
54796;DHT22;40693;43.884;20.340;2022-08-24T01:14:42;563.60;2432.00
54796;DHT22;40693;43.884;20.340;2022-08-24T01:17:08;563.60;2432.00
54796;DHT22;40693;43.884;20.340;2022-08-24T01:19:54;563.60;2432.00
54796;DHT22;40693;43.884;20.340;2022-08-24T01:22:29;563.60;2432.00
54796;DHT22;40693;43.884;20.340;2022-08-24T01:24:57;563.60;2432.00
54796;DHT22;40693;43.884;20.340;2022-08-24T01:27:24;563.60;2432.00
54796;DHT22;40693;43.884;20.340;2022-08-24T01:29:51;563.60;2432.00
54796;DHT22;40693;43.884;20.340;2022-08-24T01:32:21;563.60;2432.00
54796;DHT22;40693;43.884;20.340;2022-08-24T01:34:46;563.60;2432.00
54796;DHT22;40693;43.884;20.340;2022-08-24T01:37:15;563.60;2432.00
54796;DHT22;40693;43.884;20.340;2022-08-24T01:39:43;563.60;2432.00
54796;DHT22;40693;43.884;20.340;2022-08-24T01:42:10;563.60;2432.00
54796;DHT22;40693;43.884;20.340;2022-08-24T01:44:37;563.60;2432.00
54796;DHT22;40693;43.884;20.340;2022-08-24T01:47:05;563.60;2432.00
54796;DHT22;40693;43.884;20.340;2022-08-24T01:49:34;563.50;2432.00
54796;DHT22;40693;43.884;20.340;2022-08-24T01:52:01;563.50;2432.00
54796;DHT22;40693;43.884;20.340;2022-08-24T01:54:27;563.40;2432.00
54796;DHT22;40693;43.884;20.340;2022-08-24T01:56:54;563.40;2432.00
54796;DHT22;40693;43.884;20.340;2022-08-24T01:59:20;563.40;2432.00
54796;DHT22;40693;43.884;20.340;2022-08-24T02:01:49;563.90;2432.00
54796;DHT22;40693;43.884;20.340;2022-08-24T02:04:16;563.20;2432.00
54796;DHT22;40693;43.884;20.340;2022-08-24T02:06:42;563.20;2432.00
54796;DHT22;40693;43.884;20.340;2022-08-24T02:09:09;538.50;2406.40
54796;DHT22;40693;43.884;20.340;2022-08-24T02:11:36;538.50;2406.40
54796;DHT22;40693;43.884;20.340;2022-08-24T02:14:03;538.50;2406.40
54796;DHT22;40693;43.884;20.340;2022-08-24T02:16:29;563.20;2432.00
54796;DHT22;40693;43.884;20.340;2022-08-24T02:18:57;563.20;2432.00
54796;DHT22;40693;43.884;20.340;2022-08-24T02:21:23;563.20;2432.00
54796;DHT22;40693;43.884;20.340;2022-08-24T02:23:49;538.50;2406.40
54796;DHT22;40693;43.884;20.340;2022-08-24T02:26:15;563.20;2432.00
54796;DHT22;40693;43.884;20.340;2022-08-24T02:28:41;563.20;2432.00
54796;DHT22;40693;43.884;20.340;2022-08-24T02:31:12;563.20;2432.00
54796;DHT22;40693;43.884;20.340;2022-08-24T02:33:38;563.20;2432.00
54796;DHT22;40693;43.884;20.340;2022-08-24T02:36:06;563.30;2432.00
54796;DHT22;40693;43.884;20.340;2022-08-24T02:38:33;563.20;2432.00
54796;DHT22;40693;43.884;20.340;2022-08-24T02:40:59;563.30;2432.00
54796;DHT22;40693;43.884;20.340;2022-08-24T02:43:25;563.30;2432.00
54796;DHT22;40693;43.884;20.340;2022-08-24T02:45:50;563.40;2432.00
54796;DHT22;40693;43.884;20.340;2022-08-24T02:48:17;563.40;2432.00
54796;DHT22;40693;43.884;20.340;2022-08-24T02:50:46;563.40;2432.00
54796;DHT22;40693;43.884;20.340;2022-08-24T02:53:13;563.40;2432.00
54796;DHT22;40693;43.884;20.340;2022-08-24T02:55:41;563.40;2432.00
54796;DHT22;40693;43.884;20.340;2022-08-24T02:58:08;563.50;2432.00
54796;DHT22;40693;43.884;20.340;2022-08-24T03:00:35;563.40;2432.00
54796;DHT22;40693;43.884;20.340;2022-08-24T03:03:03;563.40;2432.00
54796;DHT22;40693;43.884;20.340;2022-08-24T03:05:29;563.50;2432.00
54796;DHT22;40693;43.884;20.340;2022-08-24T03:07:55;563.50;2432.00
54796;DHT22;40693;43.884;20.340;2022-08-24T03:10:22;563.50;2432.00
54796;DHT22;40693;43.884;20.340;2022-08-24T03:12:48;563.50;2432.00
54796;DHT22;40693;43.884;20.340;2022-08-24T03:15:16;563.50;2432.00
54796;DHT22;40693;43.884;20.340;2022-08-24T03:17:43;563.50;2432.00
54796;DHT22;40693;43.884;20.340;2022-08-24T03:20:12;563.20;2432.00
54796;DHT22;40693;43.884;20.340;2022-08-24T03:22:39;563.50;2432.00
54796;DHT22;40693;43.884;20.340;2022-08-24T03:25:06;563.60;2432.00
54796;DHT22;40693;43.884;20.340;2022-08-24T03:27:34;563.50;2432.00
54796;DHT22;40693;43.884;20.340;2022-08-24T03:29:59;563.50;2432.00
54796;DHT22;40693;43.884;20.340;2022-08-24T03:32:26;563.50;2432.00
54796;DHT22;40693;43.884;20.340;2022-08-24T03:34:51;563.50;2432.00
54796;DHT22;40693;43.884;20.340;2022-08-24T03:37:19;563.50;2432.00
54796;DHT22;40693;43.884;20.340;2022-08-24T03:39:45;563.50;2432.00
54796;DHT22;40693;43.884;20.340;2022-08-24T03:42:13;563.40;2432.00
54796;DHT22;40693;43.884;20.340;2022-08-24T03:44:38;563.40;2432.00
54796;DHT22;40693;43.884;20.340;2022-08-24T03:47:06;563.40;2432.00
54796;DHT22;40693;43.884;20.340;2022-08-24T03:49:36;563.40;2432.00
54796;DHT22;40693;43.884;20.340;2022-08-24T03:52:03;563.40;2432.00
54796;DHT22;40693;43.884;20.340;2022-08-24T03:54:29;563.40;2432.00
54796;DHT22;40693;43.884;20.340;2022-08-24T03:56:55;563.40;2432.00
54796;DHT22;40693;43.884;20.340;2022-08-24T03:59:21;563.40;2432.00
54796;DHT22;40693;43.884;20.340;2022-08-24T04:01:47;563.40;2432.00
54796;DHT22;40693;43.884;20.340;2022-08-24T04:04:13;563.30;2432.00
54796;DHT22;40693;43.884;20.340;2022-08-24T04:06:39;563.20;2432.00
54796;DHT22;40693;43.884;20.340;2022-08-24T04:09:09;563.20;2432.00
54796;DHT22;40693;43.884;20.340;2022-08-24T04:11:35;563.20;2432.00
54796;DHT22;40693;43.884;20.340;2022-08-24T04:14:00;538.50;2406.40
54796;DHT22;40693;43.884;20.340;2022-08-24T04:16:27;538.50;2406.40
54796;DHT22;40693;43.884;20.340;2022-08-24T04:18:56;538.50;2406.40
54796;DHT22;40693;43.884;20.340;2022-08-24T04:21:28;538.50;2406.40
54796;DHT22;40693;43.884;20.340;2022-08-24T04:23:55;538.50;2406.40
54796;DHT22;40693;43.884;20.340;2022-08-24T04:26:22;538.50;2406.40
54796;DHT22;40693;43.884;20.340;2022-08-24T04:28:48;538.50;2406.40
54796;DHT22;40693;43.884;20.340;2022-08-24T04:31:15;538.50;2406.40
54796;DHT22;40693;43.884;20.340;2022-08-24T04:33:42;563.20;2432.00
54796;DHT22;40693;43.884;20.340;2022-08-24T04:36:10;563.30;2432.00
54796;DHT22;40693;43.884;20.340;2022-08-24T04:38:36;563.30;2432.00
54796;DHT22;40693;43.884;20.340;2022-08-24T04:41:07;563.60;2432.00
54796;DHT22;40693;43.884;20.340;2022-08-24T04:43:34;563.40;2432.00
54796;DHT22;40693;43.884;20.340;2022-08-24T04:46:04;563.30;2432.00
54796;DHT22;40693;43.884;20.340;2022-08-24T04:48:30;563.40;2432.00
54796;DHT22;40693;43.884;20.340;2022-08-24T04:51:01;563.40;2432.00
54796;DHT22;40693;43.884;20.340;2022-08-24T04:53:27;563.40;2432.00
54796;DHT22;40693;43.884;20.340;2022-08-24T04:55:53;563.40;2432.00
54796;DHT22;40693;43.884;20.340;2022-08-24T04:58:19;563.50;2432.00
54796;DHT22;40693;43.884;20.340;2022-08-24T05:00:45;563.50;2432.00
54796;DHT22;40693;43.884;20.340;2022-08-24T05:03:11;563.60;2432.00
54796;DHT22;40693;43.884;20.340;2022-08-24T05:05:43;563.60;2432.00
54796;DHT22;40693;43.884;20.340;2022-08-24T05:08:10;563.60;2432.00
54796;DHT22;40693;43.884;20.340;2022-08-24T05:10:41;563.60;2432.00
54796;DHT22;40693;43.884;20.340;2022-08-24T05:13:07;563.60;2432.00
54796;DHT22;40693;43.884;20.340;2022-08-24T05:15:34;563.60;2432.00
54796;DHT22;40693;43.884;20.340;2022-08-24T05:18:01;563.60;2432.00
54796;DHT22;40693;43.884;20.340;2022-08-24T05:20:27;563.70;2432.00
54796;DHT22;40693;43.884;20.340;2022-08-24T05:22:53;563.70;2432.00
54796;DHT22;40693;43.884;20.340;2022-08-24T05:25:19;563.70;2432.00
54796;DHT22;40693;43.884;20.340;2022-08-24T05:27:46;563.80;2432.00
54796;DHT22;40693;43.884;20.340;2022-08-24T05:30:12;563.80;2432.00
54796;DHT22;40693;43.884;20.340;2022-08-24T05:32:38;564.00;2432.00
54796;DHT22;40693;43.884;20.340;2022-08-24T05:35:05;563.80;2432.00
54796;DHT22;40693;43.884;20.340;2022-08-24T05:37:34;563.80;2432.00
54796;DHT22;40693;43.884;20.340;2022-08-24T05:40:02;563.80;2432.00
54796;DHT22;40693;43.884;20.340;2022-08-24T05:42:28;563.80;2432.00
54796;DHT22;40693;43.884;20.340;2022-08-24T05:44:54;563.80;2432.00
54796;DHT22;40693;43.884;20.340;2022-08-24T05:47:20;563.90;2432.00
54796;DHT22;40693;43.884;20.340;2022-08-24T05:49:47;563.90;2432.00
54796;DHT22;40693;43.884;20.340;2022-08-24T05:52:16;563.90;2432.00
54796;DHT22;40693;43.884;20.340;2022-08-24T05:54:41;563.90;2432.00
54796;DHT22;40693;43.884;20.340;2022-08-24T05:57:07;563.90;2432.00
54796;DHT22;40693;43.884;20.340;2022-08-24T05:59:33;563.80;2432.00
54796;DHT22;40693;43.884;20.340;2022-08-24T06:01:58;564.10;2432.00
54796;DHT22;40693;43.884;20.340;2022-08-24T06:04:25;564.10;2432.00
54796;DHT22;40693;43.884;20.340;2022-08-24T06:06:51;564.10;2432.00
54796;DHT22;40693;43.884;20.340;2022-08-24T06:09:16;564.10;2432.00
54796;DHT22;40693;43.884;20.340;2022-08-24T06:11:44;564.10;2432.00
54796;DHT22;40693;43.884;20.340;2022-08-24T06:14:14;564.10;2432.00
54796;DHT22;40693;43.884;20.340;2022-08-24T06:16:43;588.80;2432.00
54796;DHT22;40693;43.884;20.340;2022-08-24T06:19:13;588.80;2432.00
54796;DHT22;40693;43.884;20.340;2022-08-24T06:21:39;588.80;2432.00
54796;DHT22;40693;43.884;20.340;2022-08-24T06:24:06;588.90;2432.00
54796;DHT22;40693;43.884;20.340;2022-08-24T06:26:32;588.90;2432.00
54796;DHT22;40693;43.884;20.340;2022-08-24T06:29:19;589.00;2432.00
54796;DHT22;40693;43.884;20.340;2022-08-24T06:31:47;589.00;2432.00
54796;DHT22;40693;43.884;20.340;2022-08-24T06:34:15;589.00;2432.00
54796;DHT22;40693;43.884;20.340;2022-08-24T06:36:41;589.10;2432.00
54796;DHT22;40693;43.884;20.340;2022-08-24T06:39:08;589.10;2432.00
54796;DHT22;40693;43.884;20.340;2022-08-24T06:41:35;589.10;2432.00
54796;DHT22;40693;43.884;20.340;2022-08-24T06:44:01;589.20;2432.00
54796;DHT22;40693;43.884;20.340;2022-08-24T06:46:27;589.20;2432.00
54796;DHT22;40693;43.884;20.340;2022-08-24T06:48:53;589.20;2432.00
54796;DHT22;40693;43.884;20.340;2022-08-24T06:51:20;589.30;2432.00
54796;DHT22;40693;43.884;20.340;2022-08-24T06:53:47;589.30;2432.00
54796;DHT22;40693;43.884;20.340;2022-08-24T06:56:15;589.30;2432.00
54796;DHT22;40693;43.884;20.340;2022-08-24T06:58:41;589.40;2432.00
54796;DHT22;40693;43.884;20.340;2022-08-24T07:01:22;589.40;2432.00
54796;DHT22;40693;43.884;20.340;2022-08-24T07:03:49;589.40;2432.00
54796;DHT22;40693;43.884;20.340;2022-08-24T07:06:15;589.30;2432.00
54796;DHT22;40693;43.884;20.340;2022-08-24T07:08:41;589.40;2432.00
54796;DHT22;40693;43.884;20.340;2022-08-24T07:11:07;589.40;2432.00
54796;DHT22;40693;43.884;20.340;2022-08-24T07:13:34;589.40;2432.00
54796;DHT22;40693;43.884;20.340;2022-08-24T07:16:00;589.50;2432.00
54796;DHT22;40693;43.884;20.340;2022-08-24T07:18:26;589.50;2432.00
54796;DHT22;40693;43.884;20.340;2022-08-24T07:20:54;589.00;2432.00
54796;DHT22;40693;43.884;20.340;2022-08-24T07:23:20;589.50;2432.00
54796;DHT22;40693;43.884;20.340;2022-08-24T07:25:47;589.50;2432.00
54796;DHT22;40693;43.884;20.340;2022-08-24T07:28:13;589.50;2432.00
54796;DHT22;40693;43.884;20.340;2022-08-24T07:30:40;589.50;2432.00
54796;DHT22;40693;43.884;20.340;2022-08-24T07:33:07;589.50;2432.00
54796;DHT22;40693;43.884;20.340;2022-08-24T07:35:34;589.50;2432.00
54796;DHT22;40693;43.884;20.340;2022-08-24T07:38:02;589.70;2432.00
54796;DHT22;40693;43.884;20.340;2022-08-24T07:40:29;589.60;2432.00
54796;DHT22;40693;43.884;20.340;2022-08-24T07:42:56;589.70;2432.00
54796;DHT22;40693;43.884;20.340;2022-08-24T07:45:22;614.40;2432.00
54796;DHT22;40693;43.884;20.340;2022-08-24T07:47:49;614.40;2432.00
54796;DHT22;40693;43.884;20.340;2022-08-24T07:50:16;614.50;2432.00
54796;DHT22;40693;43.884;20.340;2022-08-24T07:52:43;614.60;2432.00
54796;DHT22;40693;43.884;20.340;2022-08-24T07:55:10;614.70;2432.00
54796;DHT22;40693;43.884;20.340;2022-08-24T07:57:38;614.80;2432.00
54796;DHT22;40693;43.884;20.340;2022-08-24T08:00:11;614.80;2432.00
54796;DHT22;40693;43.884;20.340;2022-08-24T08:02:38;614.80;2432.00
54796;DHT22;40693;43.884;20.340;2022-08-24T08:05:06;615.00;2432.00
54796;DHT22;40693;43.884;20.340;2022-08-24T08:07:31;615.10;2432.00
54796;DHT22;40693;43.884;20.340;2022-08-24T08:09:57;615.10;2432.00
54796;DHT22;40693;43.884;20.340;2022-08-24T08:12:23;615.20;2432.00
54796;DHT22;40693;43.884;20.340;2022-08-24T08:14:49;615.30;2432.00
54796;DHT22;40693;43.884;20.340;2022-08-24T08:17:15;640.00;2432.00
54796;DHT22;40693;43.884;20.340;2022-08-24T08:19:41;640.10;2432.00
54796;DHT22;40693;43.884;20.340;2022-08-24T08:22:10;640.10;2432.00
54796;DHT22;40693;43.884;20.340;2022-08-24T08:24:54;640.20;2432.00
54796;DHT22;40693;43.884;20.340;2022-08-24T08:27:20;640.30;2432.00
54796;DHT22;40693;43.884;20.340;2022-08-24T08:29:46;640.40;2432.00
54796;DHT22;40693;43.884;20.340;2022-08-24T08:32:13;640.50;2432.00
54796;DHT22;40693;43.884;20.340;2022-08-24T08:34:42;640.70;2432.00
54796;DHT22;40693;43.884;20.340;2022-08-24T08:37:10;640.80;2432.00
54796;DHT22;40693;43.884;20.340;2022-08-24T08:39:36;640.90;2432.00
54796;DHT22;40693;43.884;20.340;2022-08-24T08:56:44;666.40;2432.00
54796;DHT22;40693;43.884;20.340;2022-08-24T09:18:31;692.10;2432.00
54796;DHT22;40693;43.884;20.340;2022-08-24T09:24:01;716.90;2432.00
54796;DHT22;40693;43.884;20.340;2022-08-24T09:26:56;717.00;2432.00
54796;DHT22;40693;43.884;20.340;2022-08-24T09:35:14;717.10;2432.00
54796;DHT22;40693;43.884;20.340;2022-08-24T09:46:43;717.20;2432.00
54796;DHT22;40693;43.884;20.340;2022-08-24T10:01:03;717.50;2432.00
54796;DHT22;40693;43.884;20.340;2022-08-24T10:04:00;717.50;2432.00
54796;DHT22;40693;43.884;20.340;2022-08-24T10:06:53;717.40;2432.00
54796;DHT22;40693;43.884;20.340;2022-08-24T10:15:37;717.70;2432.00
54796;DHT22;40693;43.884;20.340;2022-08-24T10:26:56;717.60;2432.00
54796;DHT22;40693;43.884;20.340;2022-08-24T10:29:51;717.60;2432.00
54796;DHT22;40693;43.884;20.340;2022-08-24T10:32:40;717.60;2432.00
54796;DHT22;40693;43.884;20.340;2022-08-24T10:35:32;717.60;2432.00
54796;DHT22;40693;43.884;20.340;2022-08-24T10:57:54;717.70;2432.00
54796;DHT22;40693;43.884;20.340;2022-08-24T11:00:27;717.70;2432.00
54796;DHT22;40693;43.884;20.340;2022-08-24T11:05:43;742.40;2432.00
54796;DHT22;40693;43.884;20.340;2022-08-24T11:08:32;742.50;2432.00
54796;DHT22;40693;43.884;20.340;2022-08-24T11:11:10;742.50;2432.00
54796;DHT22;40693;43.884;20.340;2022-08-24T11:13:52;742.50;2432.00
54796;DHT22;40693;43.884;20.340;2022-08-24T11:16:33;742.50;2432.00
54796;DHT22;40693;43.884;20.340;2022-08-24T11:19:03;742.50;2432.00
54796;DHT22;40693;43.884;20.340;2022-08-24T11:24:04;742.40;2432.00
54796;DHT22;40693;43.884;20.340;2022-08-24T11:26:30;717.70;2432.00
54796;DHT22;40693;43.884;20.340;2022-08-24T11:28:59;717.70;2432.00
54796;DHT22;40693;43.884;20.340;2022-08-24T11:31:31;717.70;2432.00
54796;DHT22;40693;43.884;20.340;2022-08-24T11:34:09;717.60;2432.00
54796;DHT22;40693;43.884;20.340;2022-08-24T11:36:38;717.50;2432.00
54796;DHT22;40693;43.884;20.340;2022-08-24T11:39:21;717.40;2432.00
54796;DHT22;40693;43.884;20.340;2022-08-24T11:41:50;717.30;2432.00
54796;DHT22;40693;43.884;20.340;2022-08-24T11:55:15;717.00;2432.00
54796;DHT22;40693;43.884;20.340;2022-08-24T12:04:16;716.90;2432.00
54796;DHT22;40693;43.884;20.340;2022-08-24T12:06:29;716.80;2432.00
54796;DHT22;40693;43.884;20.340;2022-08-24T12:14:56;691.90;2432.00
54796;DHT22;40693;43.884;20.340;2022-08-24T12:17:34;691.80;2432.00
54796;DHT22;40693;43.884;20.340;2022-08-24T12:20:34;691.70;2432.00
54796;DHT22;40693;43.884;20.340;2022-08-24T12:23:10;691.70;2432.00
54796;DHT22;40693;43.884;20.340;2022-08-24T12:25:38;691.70;2432.00
54796;DHT22;40693;43.884;20.340;2022-08-24T12:28:50;691.70;2432.00
54796;DHT22;40693;43.884;20.340;2022-08-24T12:31:22;691.70;2432.00
54796;DHT22;40693;43.884;20.340;2022-08-24T12:33:56;691.60;2432.00
54796;DHT22;40693;43.884;20.340;2022-08-24T12:39:41;691.30;2432.00
54796;DHT22;40693;43.884;20.340;2022-08-24T12:45:11;666.50;2432.00
54796;DHT22;40693;43.884;20.340;2022-08-24T12:47:49;666.50;2432.00
54796;DHT22;40693;43.884;20.340;2022-08-24T12:50:21;666.40;2432.00
54796;DHT22;40693;43.884;20.340;2022-08-24T13:01:37;666.10;2432.00
54796;DHT22;40693;43.884;20.340;2022-08-24T13:06:41;666.00;2432.00
54796;DHT22;40693;43.884;20.340;2022-08-24T13:17:49;666.00;2432.00
54796;DHT22;40693;43.884;20.340;2022-08-24T13:47:10;666.10;2432.00
54796;DHT22;40693;43.884;20.340;2022-08-24T13:55:05;666.20;2432.00
54796;DHT22;40693;43.884;20.340;2022-08-24T14:05:55;666.40;2432.00
54796;DHT22;40693;43.884;20.340;2022-08-24T14:11:07;691.20;2432.00
54796;DHT22;40693;43.884;20.340;2022-08-24T14:14:02;691.30;2432.00
54796;DHT22;40693;43.884;20.340;2022-08-24T14:22:30;691.60;2432.00
54796;DHT22;40693;43.884;20.340;2022-08-24T14:25:24;691.80;2432.00
54796;DHT22;40693;43.884;20.340;2022-08-24T14:58:09;717.00;2432.00
54796;DHT22;40693;43.884;20.340;2022-08-24T15:01:02;717.00;2432.00
54796;DHT22;40693;43.884;20.340;2022-08-24T15:06:27;717.00;2432.00
54796;DHT22;40693;43.884;20.340;2022-08-24T15:09:24;717.00;2432.00
54796;DHT22;40693;43.884;20.340;2022-08-24T15:11:53;717.00;2432.00
54796;DHT22;40693;43.884;20.340;2022-08-24T15:14:40;717.00;2432.00
54796;DHT22;40693;43.884;20.340;2022-08-24T15:17:12;717.00;2432.00
54796;DHT22;40693;43.884;20.340;2022-08-24T15:25:35;716.80;2432.00
54796;DHT22;40693;43.884;20.340;2022-08-24T15:28:11;692.10;2432.00
54796;DHT22;40693;43.884;20.340;2022-08-24T15:30:39;692.00;2432.00
54796;DHT22;40693;43.884;20.340;2022-08-24T15:33:17;692.00;2432.00
54796;DHT22;40693;43.884;20.340;2022-08-24T15:35:49;691.90;2432.00
54796;DHT22;40693;43.884;20.340;2022-08-24T15:40:41;692.10;2432.00
54796;DHT22;40693;43.884;20.340;2022-08-24T15:43:08;716.80;2432.00
54796;DHT22;40693;43.884;20.340;2022-08-24T15:45:41;716.80;2432.00
54796;DHT22;40693;43.884;20.340;2022-08-24T15:48:10;716.80;2432.00
54796;DHT22;40693;43.884;20.340;2022-08-24T15:50:42;716.90;2432.00
54796;DHT22;40693;43.884;20.340;2022-08-24T15:58:45;717.10;2432.00
54796;DHT22;40693;43.884;20.340;2022-08-24T16:03:59;717.20;2432.00
54796;DHT22;40693;43.884;20.340;2022-08-24T16:11:40;717.00;2432.00
54796;DHT22;40693;43.884;20.340;2022-08-24T16:14:22;717.00;2432.00
54796;DHT22;40693;43.884;20.340;2022-08-24T16:16:53;716.90;2432.00
54796;DHT22;40693;43.884;20.340;2022-08-24T16:19:31;716.80;2432.00
54796;DHT22;40693;43.884;20.340;2022-08-24T16:22:02;692.00;2432.00
54796;DHT22;40693;43.884;20.340;2022-08-24T16:24:36;692.00;2432.00
54796;DHT22;40693;43.884;20.340;2022-08-24T16:27:15;691.90;2432.00
54796;DHT22;40693;43.884;20.340;2022-08-24T16:29:43;691.80;2432.00
54796;DHT22;40693;43.884;20.340;2022-08-24T16:32:23;691.70;2432.00
54796;DHT22;40693;43.884;20.340;2022-08-24T16:34:54;691.70;2432.00
54796;DHT22;40693;43.884;20.340;2022-08-24T16:37:21;691.60;2432.00
54796;DHT22;40693;43.884;20.340;2022-08-24T16:39:48;691.60;2432.00
54796;DHT22;40693;43.884;20.340;2022-08-24T16:42:25;691.60;2432.00
54796;DHT22;40693;43.884;20.340;2022-08-24T16:44:52;691.50;2432.00
54796;DHT22;40693;43.884;20.340;2022-08-24T16:47:19;691.50;2432.00
54796;DHT22;40693;43.884;20.340;2022-08-24T16:49:46;691.50;2432.00
54796;DHT22;40693;43.884;20.340;2022-08-24T16:52:12;691.60;2432.00
54796;DHT22;40693;43.884;20.340;2022-08-24T16:54:38;691.60;2432.00
54796;DHT22;40693;43.884;20.340;2022-08-24T16:57:20;691.50;2432.00
54796;DHT22;40693;43.884;20.340;2022-08-24T16:59:47;691.50;2432.00
54796;DHT22;40693;43.884;20.340;2022-08-24T17:02:15;691.40;2432.00
54796;DHT22;40693;43.884;20.340;2022-08-24T17:04:41;691.40;2432.00
54796;DHT22;40693;43.884;20.340;2022-08-24T17:07:10;691.20;2432.00
54796;DHT22;40693;43.884;20.340;2022-08-24T17:09:39;691.20;2432.00
54796;DHT22;40693;43.884;20.340;2022-08-24T17:12:05;691.20;2432.00
54796;DHT22;40693;43.884;20.340;2022-08-24T17:14:33;691.30;2432.00
54796;DHT22;40693;43.884;20.340;2022-08-24T17:17:02;666.50;2432.00
54796;DHT22;40693;43.884;20.340;2022-08-24T17:19:29;666.50;2432.00
54796;DHT22;40693;43.884;20.340;2022-08-24T17:21:56;666.40;2432.00
54796;DHT22;40693;43.884;20.340;2022-08-24T17:24:22;666.40;2432.00
54796;DHT22;40693;43.884;20.340;2022-08-24T17:26:49;666.40;2432.00
54796;DHT22;40693;43.884;20.340;2022-08-24T17:29:17;666.30;2432.00
54796;DHT22;40693;43.884;20.340;2022-08-24T17:31:44;666.20;2432.00
54796;DHT22;40693;43.884;20.340;2022-08-24T17:34:10;666.20;2432.00
54796;DHT22;40693;43.884;20.340;2022-08-24T17:36:37;666.10;2432.00
54796;DHT22;40693;43.884;20.340;2022-08-24T17:39:04;666.20;2432.00
54796;DHT22;40693;43.884;20.340;2022-08-24T17:41:32;666.10;2432.00
54796;DHT22;40693;43.884;20.340;2022-08-24T17:43:59;666.10;2432.00
54796;DHT22;40693;43.884;20.340;2022-08-24T17:46:26;666.10;2432.00
54796;DHT22;40693;43.884;20.340;2022-08-24T17:48:53;666.00;2432.00
54796;DHT22;40693;43.884;20.340;2022-08-24T17:51:20;665.90;2432.00
54796;DHT22;40693;43.884;20.340;2022-08-24T17:53:46;665.90;2432.00
54796;DHT22;40693;43.884;20.340;2022-08-24T17:56:14;665.80;2432.00
54796;DHT22;40693;43.884;20.340;2022-08-24T17:58:41;665.80;2432.00
54796;DHT22;40693;43.884;20.340;2022-08-24T18:01:26;665.70;2432.00
54796;DHT22;40693;43.884;20.340;2022-08-24T18:03:52;665.70;2432.00
54796;DHT22;40693;43.884;20.340;2022-08-24T18:06:19;665.60;2432.00
54796;DHT22;40693;43.884;20.340;2022-08-24T18:08:46;665.60;2432.00
54796;DHT22;40693;43.884;20.340;2022-08-24T18:11:12;640.70;2432.00
54796;DHT22;40693;43.884;20.340;2022-08-24T18:13:39;665.60;2432.00
54796;DHT22;40693;43.884;20.340;2022-08-24T18:16:07;665.60;2432.00
54796;DHT22;40693;43.884;20.340;2022-08-24T18:18:35;640.90;2432.00
54796;DHT22;40693;43.884;20.340;2022-08-24T18:21:01;640.90;2432.00
54796;DHT22;40693;43.884;20.340;2022-08-24T18:23:27;640.80;2432.00
54796;DHT22;40693;43.884;20.340;2022-08-24T18:25:53;640.80;2432.00
54796;DHT22;40693;43.884;20.340;2022-08-24T18:28:20;640.60;2432.00
54796;DHT22;40693;43.884;20.340;2022-08-24T18:30:46;640.60;2432.00
54796;DHT22;40693;43.884;20.340;2022-08-24T18:33:12;640.50;2432.00
54796;DHT22;40693;43.884;20.340;2022-08-24T18:35:38;640.50;2432.00
54796;DHT22;40693;43.884;20.340;2022-08-24T18:38:04;640.40;2432.00
54796;DHT22;40693;43.884;20.340;2022-08-24T18:40:30;640.30;2432.00
54796;DHT22;40693;43.884;20.340;2022-08-24T18:42:56;640.20;2432.00
54796;DHT22;40693;43.884;20.340;2022-08-24T18:45:23;640.10;2432.00
54796;DHT22;40693;43.884;20.340;2022-08-24T18:47:50;640.00;2432.00
54796;DHT22;40693;43.884;20.340;2022-08-24T18:50:16;615.30;2432.00
54796;DHT22;40693;43.884;20.340;2022-08-24T18:52:42;615.30;2432.00
54796;DHT22;40693;43.884;20.340;2022-08-24T18:55:09;615.20;2432.00
54796;DHT22;40693;43.884;20.340;2022-08-24T18:57:35;615.20;2432.00
54796;DHT22;40693;43.884;20.340;2022-08-24T19:00:00;615.20;2432.00
54796;DHT22;40693;43.884;20.340;2022-08-24T19:02:28;615.10;2432.00
54796;DHT22;40693;43.884;20.340;2022-08-24T19:07:53;615.00;2432.00
54796;DHT22;40693;43.884;20.340;2022-08-24T19:10:22;615.00;2432.00
54796;DHT22;40693;43.884;20.340;2022-08-24T19:12:55;614.90;2432.00
54796;DHT22;40693;43.884;20.340;2022-08-24T19:15:22;614.90;2432.00